createdAt,value
2023-02-05T00:01:43.088Z,26.95
2023-02-05T00:04:14.980Z,29.88
2023-02-05T00:06:46.886Z,27.70
2023-02-05T00:09:18.749Z,28.88
2023-02-05T00:11:50.610Z,29.83
2023-02-05T00:14:22.929Z,28.05
2023-02-05T00:16:54.837Z,28.33
2023-02-05T00:19:26.788Z,24.02
2023-02-05T00:21:58.646Z,25.77
2023-02-05T00:24:30.528Z,27.08
2023-02-05T00:27:02.752Z,24.70
2023-02-05T00:29:34.666Z,26.70
2023-02-05T00:32:06.513Z,28.85
2023-02-05T00:34:38.480Z,23.80
2023-02-05T00:37:10.272Z,25.63
2023-02-05T00:39:42.094Z,23.88
2023-02-05T00:42:14.027Z,22.30
2023-02-05T00:44:45.949Z,28.42
2023-02-05T00:47:17.888Z,26.67
2023-02-05T00:49:49.734Z,22.20
2023-02-05T00:52:21.685Z,23.77
2023-02-05T00:54:53.651Z,19.83
2023-02-05T00:57:25.834Z,24.92
2023-02-05T00:59:57.689Z,24.13
2023-02-05T01:02:30.260Z,22.88
2023-02-05T01:05:03.428Z,20.52
2023-02-05T01:07:35.413Z,23.65
2023-02-05T01:10:07.749Z,25.13
2023-02-05T01:12:39.674Z,20.75
2023-02-05T01:15:13.684Z,19.92
2023-02-05T01:17:46.161Z,18.38
2023-02-05T01:20:19.276Z,21.60
2023-02-05T01:22:51.532Z,20.25
2023-02-05T01:25:24.119Z,18.40
2023-02-05T01:27:56.647Z,19.23
2023-02-05T01:30:28.701Z,23.48
2023-02-05T01:33:02.092Z,22.40
2023-02-05T01:35:34.653Z,19.63
2023-02-05T01:38:07.972Z,20.88
2023-02-05T01:40:40.111Z,15.73
2023-02-05T01:43:16.935Z,16.35
2023-02-05T01:46:19.461Z,16.67
2023-02-05T01:48:55.941Z,15.88
2023-02-05T01:51:30.434Z,14.63
2023-02-05T01:54:02.529Z,14.98
2023-02-05T01:56:39.469Z,17.02
2023-02-05T01:59:26.914Z,18.10
2023-02-05T02:02:01.065Z,19.38
2023-02-05T02:04:50.077Z,18.10
2023-02-05T02:07:24.447Z,15.15
2023-02-05T02:09:56.431Z,16.60
2023-02-05T02:12:32.388Z,18.50
2023-02-05T02:15:12.338Z,16.77
2023-02-05T02:17:47.700Z,15.30
2023-02-05T02:20:28.016Z,16.30
2023-02-05T02:23:12.026Z,15.65
2023-02-05T02:26:08.731Z,12.30
2023-02-05T02:28:51.531Z,13.25
2023-02-05T02:31:32.033Z,12.23
2023-02-05T02:34:31.313Z,13.05
2023-02-05T02:37:14.626Z,14.20
2023-02-05T02:40:12.987Z,14.02
2023-02-05T02:42:57.759Z,15.60
2023-02-05T02:45:34.198Z,13.15
2023-02-05T02:48:07.344Z,13.60
2023-02-05T02:50:43.637Z,15.25
2023-02-05T02:53:20.714Z,13.60
2023-02-05T02:55:55.600Z,12.07
2023-02-05T02:58:35.820Z,11.13
2023-02-05T03:01:11.923Z,10.73
2023-02-05T03:03:51.482Z,13.60
2023-02-05T03:06:23.476Z,11.70
2023-02-05T03:09:03.434Z,13.07
2023-02-05T03:11:35.938Z,7.90
2023-02-05T03:14:08.360Z,8.52
2023-02-05T03:16:42.968Z,12.77
2023-02-05T03:19:14.847Z,8.95
2023-02-05T03:21:51.180Z,10.50
2023-02-05T03:24:23.314Z,10.73
2023-02-05T03:26:55.269Z,11.70
2023-02-05T03:29:36.544Z,12.27
2023-02-05T03:32:46.006Z,8.68
2023-02-05T03:35:40.831Z,9.80
2023-02-05T03:38:45.302Z,11.90
2023-02-05T03:41:57.711Z,8.80
2023-02-05T03:44:52.917Z,10.88
2023-02-05T03:47:49.308Z,8.75
2023-02-05T03:50:32.427Z,7.18
2023-02-05T03:53:21.952Z,5.82
2023-02-05T03:56:09.873Z,9.18
2023-02-05T03:58:55.191Z,11.45
2023-02-05T04:01:29.119Z,11.90
2023-02-05T04:04:01.352Z,12.40
2023-02-05T04:06:34.271Z,9.60
2023-02-05T04:09:07.310Z,11.25
2023-02-05T04:11:40.304Z,8.85
2023-02-05T04:14:12.269Z,12.05
2023-02-05T04:16:45.748Z,9.38
2023-02-05T04:19:17.932Z,13.10
2023-02-05T04:21:50.654Z,11.52
2023-02-05T04:24:22.685Z,13.40
2023-02-05T04:26:54.633Z,8.23
2023-02-05T04:29:26.861Z,10.82
2023-02-05T04:32:00.181Z,10.70
2023-02-05T04:34:32.100Z,9.30
2023-02-05T04:37:05.953Z,13.18
2023-02-05T04:39:38.025Z,10.43
2023-02-05T04:42:09.897Z,13.85
2023-02-05T04:44:41.782Z,11.05
2023-02-05T04:47:14.136Z,7.70
2023-02-05T04:49:46.041Z,10.13
2023-02-05T04:52:17.984Z,12.50
2023-02-05T04:54:49.912Z,11.35
2023-02-05T04:57:21.789Z,8.02
2023-02-05T04:59:53.674Z,7.25
2023-02-05T05:02:25.822Z,9.40
2023-02-05T05:04:57.774Z,12.02
2023-02-05T05:07:32.745Z,8.77
2023-02-05T05:10:07.314Z,13.40
2023-02-05T05:12:39.292Z,8.90
2023-02-05T05:15:11.171Z,9.85
2023-02-05T05:17:42.984Z,13.65
2023-02-05T05:20:14.940Z,12.20
2023-02-05T05:22:46.849Z,11.15
2023-02-05T05:25:18.785Z,8.07
2023-02-05T05:27:50.723Z,5.90
2023-02-05T05:30:22.625Z,11.07
2023-02-05T05:32:54.533Z,5.70
2023-02-05T05:35:26.379Z,10.25
2023-02-05T05:37:58.946Z,8.93
2023-02-05T05:40:49.728Z,9.32
2023-02-05T05:43:40.761Z,10.70
2023-02-05T05:46:14.898Z,7.97
2023-02-05T05:48:46.829Z,9.63
2023-02-05T05:51:19.629Z,9.52
2023-02-05T05:53:51.748Z,9.23
2023-02-05T05:56:23.666Z,10.77
2023-02-05T05:58:55.571Z,7.40
2023-02-05T06:01:27.680Z,9.75
2023-02-05T06:03:59.582Z,9.90
2023-02-05T06:06:31.500Z,12.18
2023-02-05T06:09:03.476Z,8.18
2023-02-05T06:11:35.376Z,8.70
2023-02-05T06:14:07.356Z,5.80
2023-02-05T06:16:40.306Z,10.25
2023-02-05T06:19:12.264Z,12.70
2023-02-05T06:21:44.169Z,10.38
2023-02-05T06:24:16.029Z,8.30
2023-02-05T06:26:47.886Z,7.15
2023-02-05T06:29:19.908Z,8.88
2023-02-05T06:31:52.016Z,9.20
2023-02-05T06:34:23.880Z,7.50
2023-02-05T06:36:55.911Z,13.75
2023-02-05T06:39:27.969Z,5.93
2023-02-05T06:42:00.150Z,11.05
2023-02-05T06:44:32.571Z,9.05
2023-02-05T06:47:04.480Z,8.27
2023-02-05T06:49:36.621Z,7.72
2023-02-05T06:52:08.528Z,7.82
2023-02-05T06:54:40.544Z,7.32
2023-02-05T06:57:12.512Z,14.70
2023-02-05T06:59:44.366Z,8.45
2023-02-05T07:02:16.316Z,10.55
2023-02-05T07:04:48.249Z,8.73
2023-02-05T07:07:20.155Z,8.95
2023-02-05T07:09:52.024Z,33.83
2023-02-05T07:12:23.920Z,76.90
2023-02-05T07:14:55.831Z,35.70
2023-02-05T07:17:28.747Z,8.32
2023-02-05T07:20:01.203Z,6.90
2023-02-05T07:22:33.106Z,10.48
2023-02-05T07:25:05.240Z,9.18
2023-02-05T07:27:37.115Z,13.85
2023-02-05T07:30:09.718Z,10.07
2023-02-05T07:32:41.780Z,9.20
2023-02-05T07:35:13.699Z,9.48
2023-02-05T07:37:45.651Z,9.48
2023-02-05T07:40:17.830Z,9.98
2023-02-05T07:42:50.025Z,8.25
2023-02-05T07:45:22.040Z,7.43
2023-02-05T07:47:54.096Z,11.73
2023-02-05T07:50:26.053Z,7.63
2023-02-05T07:52:57.905Z,11.07
2023-02-05T07:55:29.727Z,6.30
2023-02-05T07:58:01.627Z,13.35
2023-02-05T08:00:33.675Z,16.17
2023-02-05T08:03:05.756Z,11.57
2023-02-05T08:05:38.386Z,9.65
2023-02-05T08:08:10.830Z,8.20
2023-02-05T08:10:42.680Z,11.60
2023-02-05T08:13:14.508Z,8.23
2023-02-05T08:15:46.449Z,11.25
2023-02-05T08:18:18.421Z,9.68
2023-02-05T08:20:54.627Z,11.63
2023-02-05T08:23:26.898Z,8.55
2023-02-05T08:25:59.899Z,10.90
2023-02-05T08:28:32.087Z,9.73
2023-02-05T08:31:13.506Z,12.43
2023-02-05T08:33:47.733Z,8.10
2023-02-05T08:36:19.690Z,14.70
2023-02-05T08:38:51.594Z,12.35
2023-02-05T08:41:23.769Z,12.45
2023-02-05T08:43:55.791Z,9.65
2023-02-05T08:46:33.856Z,12.60
2023-02-05T08:49:17.014Z,11.05
2023-02-05T08:51:48.980Z,8.98
2023-02-05T08:54:21.048Z,10.10
2023-02-05T08:56:53.096Z,8.90
2023-02-05T08:59:25.096Z,9.45
2023-02-05T09:01:57.000Z,9.07
2023-02-05T09:04:28.996Z,22.80
2023-02-05T09:07:00.875Z,9.73
2023-02-05T09:09:35.011Z,13.52
2023-02-05T09:12:07.480Z,12.25
2023-02-05T09:14:39.892Z,5.03
2023-02-05T09:17:14.362Z,7.78
2023-02-05T09:19:46.390Z,5.45
2023-02-05T09:22:18.509Z,5.25
2023-02-05T09:24:50.491Z,4.22
2023-02-05T09:27:22.351Z,5.43
2023-02-05T09:29:54.212Z,10.68
2023-02-05T09:32:26.158Z,6.32
2023-02-05T09:34:58.057Z,8.18
2023-02-05T09:37:29.979Z,4.63
2023-02-05T09:40:20.098Z,5.22
2023-02-05T09:43:01.557Z,5.43
2023-02-05T09:45:52.018Z,10.60
2023-02-05T09:48:46.567Z,8.10
2023-02-05T09:51:22.355Z,12.23
2023-02-05T09:53:57.832Z,8.40
2023-02-05T09:56:30.327Z,6.57
2023-02-05T09:59:04.369Z,6.32
2023-02-05T10:01:51.089Z,8.52
2023-02-05T10:04:23.498Z,10.00
2023-02-05T10:07:28.551Z,5.70
2023-02-05T10:10:30.686Z,9.75
2023-02-05T10:13:14.584Z,5.40
2023-02-05T10:15:51.115Z,4.00
2023-02-05T10:18:59.720Z,4.93
2023-02-05T10:21:37.554Z,6.55
2023-02-05T10:24:47.129Z,10.50
2023-02-05T10:27:28.800Z,3.33
2023-02-05T10:30:09.593Z,4.38
2023-02-05T10:32:59.896Z,5.73
2023-02-05T10:35:49.854Z,6.20
2023-02-05T10:38:29.348Z,5.05
2023-02-05T10:41:12.157Z,4.72
2023-02-05T10:43:51.223Z,4.13
2023-02-05T10:46:31.994Z,4.13
2023-02-05T10:49:23.918Z,5.03
2023-02-05T10:51:55.884Z,9.10
2023-02-05T10:54:34.055Z,6.25
2023-02-05T10:57:15.770Z,8.90
2023-02-05T10:59:55.871Z,6.07
2023-02-05T11:02:50.891Z,6.90
2023-02-05T11:05:36.326Z,6.57
2023-02-05T11:08:32.420Z,4.53
2023-02-05T11:11:07.073Z,7.65
2023-02-05T11:13:48.120Z,4.45
2023-02-05T11:16:20.409Z,11.93
2023-02-05T11:18:58.940Z,6.65
2023-02-05T11:21:51.548Z,8.05
2023-02-05T11:24:33.950Z,7.90
2023-02-05T11:27:50.304Z,5.03
2023-02-05T11:30:53.691Z,5.95
2023-02-05T11:33:28.643Z,8.77
2023-02-05T11:36:09.380Z,9.90
2023-02-05T11:38:47.309Z,6.20
2023-02-05T11:41:32.239Z,6.40
2023-02-05T11:44:04.413Z,9.25
2023-02-05T11:46:44.445Z,6.45
2023-02-05T11:49:42.863Z,8.80
2023-02-05T11:52:17.579Z,7.50
2023-02-05T11:54:50.228Z,8.30
2023-02-05T11:57:22.064Z,7.18
2023-02-05T12:00:01.994Z,9.25
2023-02-05T12:02:38.960Z,4.82
2023-02-05T12:05:22.683Z,8.82
2023-02-05T12:08:11.098Z,7.05
2023-02-05T12:11:09.948Z,9.00
2023-02-05T12:14:06.564Z,9.45
2023-02-05T12:16:51.689Z,6.28
2023-02-05T12:19:33.733Z,13.50
2023-02-05T12:22:32.211Z,6.78
2023-02-05T12:25:22.611Z,5.07
2023-02-05T12:28:09.838Z,5.78
2023-02-05T12:31:05.033Z,9.30
2023-02-05T12:34:13.991Z,10.15
2023-02-05T12:37:02.315Z,7.70
2023-02-05T12:39:54.929Z,6.55
2023-02-05T12:42:33.062Z,8.80
2023-02-05T12:45:41.879Z,8.02
2023-02-05T12:49:00.209Z,10.30
2023-02-05T12:51:35.370Z,8.13
2023-02-05T12:54:24.988Z,10.38
2023-02-05T12:57:00.214Z,6.72
2023-02-05T12:59:43.301Z,6.10
2023-02-05T13:02:32.568Z,9.40
2023-02-05T13:05:16.395Z,9.90
2023-02-05T13:08:16.916Z,5.55
2023-02-05T13:10:52.279Z,7.13
2023-02-05T13:13:40.886Z,7.32
2023-02-05T13:16:17.312Z,8.02
2023-02-05T13:19:00.591Z,12.43
2023-02-05T13:21:52.613Z,6.78
2023-02-05T13:24:57.482Z,8.60
2023-02-05T13:27:52.608Z,8.57
2023-02-05T13:30:50.577Z,7.43
2023-02-05T13:33:22.810Z,8.15
2023-02-05T13:36:16.093Z,9.07
2023-02-05T13:39:06.067Z,10.43
2023-02-05T13:41:38.131Z,11.48
2023-02-05T13:44:32.852Z,6.95
2023-02-05T13:47:10.721Z,8.75
2023-02-05T13:50:01.651Z,10.98
2023-02-05T13:52:52.454Z,14.00
2023-02-05T13:56:16.446Z,18.92
2023-02-05T13:59:05.277Z,13.52
2023-02-05T14:01:43.113Z,9.02
2023-02-05T14:04:26.736Z,9.65
2023-02-05T14:07:13.089Z,14.90
2023-02-05T14:09:56.400Z,9.52
2023-02-05T14:12:38.468Z,5.97
2023-02-05T14:15:16.396Z,10.32
2023-02-05T14:17:48.364Z,10.63
2023-02-05T14:20:26.574Z,12.07
2023-02-05T14:23:05.868Z,13.35
2023-02-05T14:25:45.101Z,7.38
2023-02-05T14:28:17.060Z,8.82
2023-02-05T14:30:58.997Z,8.10
2023-02-05T14:33:37.237Z,9.38
2023-02-05T14:36:20.855Z,8.85
2023-02-05T14:39:21.143Z,6.93
2023-02-05T14:41:58.753Z,11.00
2023-02-05T14:44:34.952Z,7.15
2023-02-05T14:47:25.842Z,8.13
2023-02-05T14:50:18.630Z,6.30
2023-02-05T14:53:06.379Z,6.28
2023-02-05T14:55:43.738Z,6.97
2023-02-05T14:58:28.740Z,8.20
2023-02-05T15:01:36.132Z,6.22
2023-02-05T15:04:23.692Z,7.18
2023-02-05T15:06:58.576Z,12.60
2023-02-05T15:09:51.707Z,9.38
2023-02-05T15:13:03.360Z,6.97
2023-02-05T15:15:37.532Z,7.20
2023-02-05T15:18:24.927Z,5.30
2023-02-05T15:20:59.156Z,12.27
2023-02-05T15:24:01.907Z,6.68
2023-02-05T15:27:05.403Z,5.30
2023-02-05T15:29:45.263Z,7.53
2023-02-05T15:32:55.856Z,6.82
2023-02-05T15:35:33.136Z,7.50
2023-02-05T15:38:20.462Z,7.55
2023-02-05T15:40:53.685Z,6.47
2023-02-05T15:43:28.721Z,5.22
2023-02-05T15:46:07.480Z,6.55
2023-02-05T15:48:40.851Z,4.05
2023-02-05T15:51:36.366Z,5.97
2023-02-05T15:54:08.470Z,6.13
2023-02-05T15:56:44.537Z,7.72
2023-02-05T15:59:21.186Z,6.93
2023-02-05T16:02:18.810Z,8.05
2023-02-05T16:05:00.207Z,7.25
2023-02-05T16:07:43.396Z,5.22
2023-02-05T16:10:18.464Z,5.82
2023-02-05T16:13:05.836Z,5.32
2023-02-05T16:15:42.401Z,7.85
2023-02-05T16:18:19.685Z,3.70
2023-02-05T16:20:57.569Z,8.10
2023-02-05T16:23:38.352Z,4.78
2023-02-05T16:26:17.139Z,4.97
2023-02-05T16:28:54.535Z,5.20
2023-02-05T16:31:28.325Z,6.57
2023-02-05T16:34:05.360Z,4.53
2023-02-05T16:36:42.026Z,7.13
2023-02-05T16:39:28.962Z,5.85
2023-02-05T16:42:09.104Z,8.65
2023-02-05T16:44:42.193Z,6.38
2023-02-05T16:47:17.533Z,6.03
2023-02-05T16:49:50.008Z,10.13
2023-02-05T16:52:34.641Z,11.00
2023-02-05T16:55:28.353Z,6.03
2023-02-05T16:58:06.220Z,6.28
2023-02-05T17:00:38.588Z,10.73
2023-02-05T17:03:19.068Z,6.72
2023-02-05T17:05:58.666Z,5.75
2023-02-05T17:08:33.915Z,5.82
2023-02-05T17:11:13.116Z,8.63
2023-02-05T17:13:47.994Z,4.68
2023-02-05T17:16:31.147Z,6.78
2023-02-05T17:19:08.020Z,5.80
2023-02-05T17:21:40.310Z,5.35
2023-02-05T17:24:14.689Z,4.43
2023-02-05T17:26:47.071Z,5.15
2023-02-05T17:29:19.087Z,6.53
2023-02-05T17:31:51.228Z,5.57
2023-02-05T17:34:23.703Z,5.55
2023-02-05T17:36:56.188Z,6.70
2023-02-05T17:39:29.932Z,9.48
2023-02-05T17:42:07.626Z,7.55
2023-02-05T17:44:39.815Z,7.85
2023-02-05T17:47:11.814Z,6.43
2023-02-05T17:49:44.020Z,6.75
2023-02-05T17:52:17.129Z,7.53
2023-02-05T17:54:50.270Z,8.52
2023-02-05T17:57:23.648Z,6.95
2023-02-05T18:00:01.119Z,7.18
2023-02-05T18:02:33.716Z,9.00
2023-02-05T18:05:13.631Z,8.88
2023-02-05T18:07:53.027Z,4.90
2023-02-05T18:10:34.314Z,6.85
2023-02-05T18:13:10.549Z,8.13
2023-02-05T18:15:43.893Z,3.27
2023-02-05T18:18:16.136Z,6.20
2023-02-05T18:20:48.037Z,6.03
2023-02-05T18:23:28.739Z,6.78
2023-02-05T18:26:01.860Z,5.93
2023-02-05T18:28:34.235Z,4.90
2023-02-05T18:31:08.031Z,11.07
2023-02-05T18:33:40.716Z,5.32
2023-02-05T18:36:14.921Z,7.20
2023-02-05T18:38:46.795Z,3.40
2023-02-05T18:41:23.598Z,6.13
2023-02-05T18:43:56.546Z,4.35
2023-02-05T18:46:29.311Z,4.63
2023-02-05T18:49:01.703Z,4.57
2023-02-05T18:51:33.654Z,7.20
2023-02-05T18:54:06.770Z,5.53
2023-02-05T18:56:38.731Z,9.93
2023-02-05T18:59:15.754Z,4.53
2023-02-05T19:01:47.766Z,4.75
2023-02-05T19:04:21.033Z,5.25
2023-02-05T19:06:53.685Z,8.80
2023-02-05T19:09:26.227Z,10.82
2023-02-05T19:11:58.090Z,4.32
2023-02-05T19:14:29.945Z,6.22
2023-02-05T19:17:01.788Z,16.20
2023-02-05T19:19:34.140Z,11.45
2023-02-05T19:22:06.556Z,9.02
2023-02-05T19:24:40.373Z,11.30
2023-02-05T19:27:12.301Z,8.18
2023-02-05T19:29:44.262Z,5.53
2023-02-05T19:32:16.105Z,7.63
2023-02-05T19:34:48.049Z,8.30
2023-02-05T19:37:20.307Z,9.00
2023-02-05T19:39:52.476Z,5.07
2023-02-05T19:42:25.949Z,5.82
2023-02-05T19:44:58.013Z,10.68
2023-02-05T19:47:30.039Z,18.00
2023-02-05T19:50:01.979Z,7.13
2023-02-05T19:52:34.050Z,6.97
2023-02-05T19:55:06.371Z,15.68
2023-02-05T19:57:38.350Z,11.20
2023-02-05T20:00:11.206Z,8.57
2023-02-05T20:02:46.058Z,10.15
2023-02-05T20:05:18.200Z,8.80
2023-02-05T20:07:51.228Z,7.38
2023-02-05T20:10:23.172Z,5.28
2023-02-05T20:12:56.378Z,8.50
2023-02-05T20:15:28.285Z,7.85
2023-02-05T20:18:00.181Z,11.05
2023-02-05T20:20:33.905Z,6.90
2023-02-05T20:23:05.942Z,7.95
2023-02-05T20:25:37.889Z,6.63
2023-02-05T20:28:09.966Z,49.25
2023-02-05T20:31:00.743Z,8.32
2023-02-05T20:33:32.749Z,9.35
2023-02-05T20:36:10.442Z,11.20
2023-02-05T20:38:42.580Z,8.45
2023-02-05T20:41:17.341Z,6.55
2023-02-05T20:43:49.708Z,8.32
2023-02-05T20:46:22.758Z,11.57
2023-02-05T20:48:54.857Z,8.95
2023-02-05T20:51:27.386Z,7.25
2023-02-05T20:54:00.205Z,6.03
2023-02-05T20:56:32.591Z,6.65
2023-02-05T20:59:06.595Z,7.57
2023-02-05T21:01:39.950Z,9.05
2023-02-05T21:04:12.777Z,8.38
2023-02-05T21:06:44.682Z,8.45
2023-02-05T21:09:16.800Z,9.30
2023-02-05T21:11:50.101Z,10.73
2023-02-05T21:14:22.776Z,9.85
2023-02-05T21:16:54.806Z,6.82
2023-02-05T21:19:26.751Z,11.98
2023-02-05T21:21:59.306Z,9.27
2023-02-05T21:24:31.364Z,15.40
2023-02-05T21:27:03.263Z,11.48
2023-02-05T21:29:35.232Z,8.32
2023-02-05T21:32:08.127Z,11.07
2023-02-05T21:34:40.093Z,7.75
2023-02-05T21:37:12.102Z,5.50
2023-02-05T21:39:44.324Z,7.57
2023-02-05T21:42:16.178Z,8.10
2023-02-05T21:44:51.012Z,7.40
2023-02-05T21:47:23.137Z,8.70
2023-02-05T21:49:54.945Z,10.93
2023-02-05T21:52:26.998Z,9.10
2023-02-05T21:54:59.038Z,6.95
2023-02-05T21:57:30.946Z,6.80
2023-02-05T22:00:04.498Z,5.55
2023-02-05T22:02:43.922Z,10.07
2023-02-05T22:05:15.834Z,6.95
2023-02-05T22:07:50.713Z,7.63
2023-02-05T22:10:25.584Z,5.03
2023-02-05T22:12:57.749Z,7.07
2023-02-05T22:15:29.700Z,8.60
2023-02-05T22:18:01.615Z,7.22
2023-02-05T22:20:33.660Z,8.27
2023-02-05T22:23:05.546Z,6.28
2023-02-05T22:25:37.617Z,6.70
2023-02-05T22:28:09.782Z,8.32
2023-02-05T22:30:41.732Z,10.27
2023-02-05T22:33:13.666Z,8.85
2023-02-05T22:35:51.125Z,10.57
2023-02-05T22:38:23.121Z,9.30
2023-02-05T22:40:57.197Z,7.07
2023-02-05T22:43:29.052Z,10.50
2023-02-05T22:46:09.204Z,8.65
2023-02-05T22:48:43.518Z,10.52
2023-02-05T22:51:21.944Z,13.77
2023-02-05T22:53:54.569Z,8.55
2023-02-05T22:56:27.086Z,6.70
2023-02-05T22:59:01.359Z,4.60
2023-02-05T23:01:36.136Z,6.68
2023-02-05T23:04:09.807Z,10.65
2023-02-05T23:06:42.731Z,31.23
2023-02-05T23:09:16.949Z,23.67
2023-02-05T23:11:48.897Z,15.68
2023-02-05T23:14:20.724Z,8.68
2023-02-05T23:16:52.582Z,9.73
2023-02-05T23:19:24.529Z,7.80
2023-02-05T23:21:56.380Z,10.55
2023-02-05T23:24:28.290Z,5.22
2023-02-05T23:27:00.452Z,5.15
2023-02-05T23:29:32.343Z,5.57
2023-02-05T23:32:04.768Z,8.55
2023-02-05T23:34:36.812Z,7.53
2023-02-05T23:37:08.772Z,8.73
2023-02-05T23:39:40.626Z,9.82
2023-02-05T23:42:12.555Z,5.35
2023-02-05T23:44:44.445Z,9.40
2023-02-05T23:47:16.321Z,8.57
2023-02-05T23:49:48.302Z,5.60
2023-02-05T23:52:20.173Z,11.15
2023-02-05T23:54:52.106Z,9.75
2023-02-05T23:57:23.961Z,5.65
2023-02-05T23:59:55.837Z,5.85
